Time;durP1;ratioP1;P1;durP2;ratioP2;P2;SDS_P1;SDS_P2;PMS_P1;PMS_P2;Temp;Humidity;BMP_temperature;BMP_pressure;BME280_temperature;BME280_humidity;BME280_pressure;Samples;Min_cycle;Max_cycle;Signal;HPM_P1;HPM_P2
2021/01/19 00:00:01;;;;;;;40.27;26.30;;;;;;;;;;2096457;28;20647;-59
2021/01/19 00:01:01;;;;;;;41.83;26.07;;;;;;;;;;2088519;28;20227;-55
2021/01/19 00:02:02;;;;;;;41.07;27.90;;;;;;;;;;2081846;28;20704;-60
2021/01/19 00:03:02;;;;;;;35.67;23.27;;;;;;;;;;2087834;28;20180;-56
2021/01/19 00:04:03;;;;;;;40.57;26.97;;;;;;;;;;2098886;28;20209;-52
2021/01/19 00:05:03;;;;;;;39.67;25.40;;;;;;;;;;2099207;28;20655;-59
2021/01/19 00:06:04;;;;;;;41.57;25.37;;;;;;;;;;2090186;28;20733;-57
2021/01/19 00:07:04;;;;;;;37.70;24.30;;;;;;;;;;2090454;28;20184;-56
2021/01/19 00:08:04;;;;;;;38.40;26.63;;;;;;;;;;2098320;28;20212;-54
2021/01/19 00:09:04;;;;;;;35.50;25.93;;;;;;;;;;2099342;28;20308;-57
2021/01/19 00:10:05;;;;;;;37.40;25.27;;;;;;;;;;2098029;28;20179;-56
2021/01/19 00:11:06;;;;;;;36.03;25.33;;;;;;;;;;2098905;28;20304;-56
2021/01/19 00:12:06;;;;;;;38.27;23.83;;;;;;;;;;2097395;28;20194;-61
2021/01/19 00:13:06;;;;;;;35.87;23.73;;;;;;;;;;2098319;28;20203;-59
2021/01/19 00:14:07;;;;;;;38.10;26.50;;;;;;;;;;2097791;28;20171;-61
2021/01/19 00:15:07;;;;;;;38.40;26.83;;;;;;;;;;2100245;28;20174;-54
2021/01/19 00:16:08;;;;;;;39.17;25.70;;;;;;;;;;2096608;28;20217;-57
2021/01/19 00:17:08;;;;;;;36.90;26.10;;;;;;;;;;2096361;28;20220;-61
2021/01/19 00:18:08;;;;;;;27.90;18.47;;;;;;;;;;2088278;28;20198;-60
2021/01/19 00:19:09;;;;;;;36.73;24.87;;;;;;;;;;2082150;28;20283;-62
2021/01/19 00:20:10;;;;;;;32.60;23.60;;;;;;;;;;2091637;28;20168;-61
2021/01/19 00:21:10;;;;;;;37.77;25.47;;;;;;;;;;2100837;28;20243;-61
2021/01/19 00:22:11;;;;;;;36.57;25.43;;;;;;;;;;2100503;28;20179;-57
2021/01/19 00:23:12;;;;;;;34.57;24.67;;;;;;;;;;2099793;28;20167;-58
2021/01/19 00:24:12;;;;;;;37.57;24.73;;;;;;;;;;2097927;28;20187;-60
2021/01/19 00:25:12;;;;;;;39.60;26.30;;;;;;;;;;2091428;28;20176;-61
2021/01/19 00:26:13;;;;;;;38.80;24.33;;;;;;;;;;2110669;23;20742;-57
2021/01/19 00:27:13;;;;;;;38.83;26.83;;;;;;;;;;2096014;28;20254;-55
2021/01/19 00:28:13;;;;;;;38.83;26.20;;;;;;;;;;2096740;28;20175;-56
2021/01/19 00:29:14;;;;;;;36.00;26.63;;;;;;;;;;2104021;28;20190;-58
2021/01/19 00:30:15;;;;;;;36.77;24.63;;;;;;;;;;2105282;28;20174;-56
2021/01/19 00:31:15;;;;;;;37.20;26.03;;;;;;;;;;2098395;28;20182;-57
2021/01/19 00:32:15;;;;;;;39.77;26.77;;;;;;;;;;2096643;28;20258;-56
2021/01/19 00:33:16;;;;;;;37.30;25.50;;;;;;;;;;2105702;28;20648;-55
2021/01/19 00:34:16;;;;;;;37.03;24.90;;;;;;;;;;2089310;28;20213;-58
2021/01/19 00:35:16;;;;;;;40.07;27.53;;;;;;;;;;2087784;28;20214;-57
2021/01/19 00:36:16;;;;;;;36.03;25.13;;;;;;;;;;2102153;28;20198;-57
2021/01/19 00:37:17;;;;;;;38.13;23.57;;;;;;;;;;2094161;28;20228;-55
2021/01/19 00:38:17;;;;;;;36.67;25.67;;;;;;;;;;2093618;28;20171;-56
2021/01/19 00:39:17;;;;;;;41.10;27.53;;;;;;;;;;2101329;28;20530;-58
2021/01/19 00:40:17;;;;;;;40.30;25.80;;;;;;;;;;2094418;28;20175;-58
2021/01/19 00:41:18;;;;;;;41.90;27.20;;;;;;;;;;2094567;28;20183;-58
2021/01/19 00:42:18;;;;;;;37.17;26.60;;;;;;;;;;2103312;28;20177;-58
2021/01/19 00:43:18;;;;;;;39.27;27.03;;;;;;;;;;2104185;28;20189;-59
2021/01/19 00:44:19;;;;;;;37.40;23.43;;;;;;;;;;2102853;28;20182;-60
2021/01/19 00:45:19;;;;;;;43.07;27.57;;;;;;;;;;2103673;28;20198;-60
2021/01/19 00:46:19;;;;;;;38.63;25.27;;;;;;;;;;2101139;28;20202;-57
2021/01/19 00:47:19;;;;;;;36.03;26.23;;;;;;;;;;2103036;28;20189;-58
2021/01/19 00:48:20;;;;;;;42.00;27.43;;;;;;;;;;2098396;28;20606;-56
2021/01/19 00:49:20;;;;;;;43.70;27.47;;;;;;;;;;2088267;28;20641;-57
2021/01/19 00:50:21;;;;;;;40.43;26.33;;;;;;;;;;2085233;28;20168;-60
2021/01/19 00:51:21;;;;;;;36.87;24.27;;;;;;;;;;2084407;28;20176;-60
2021/01/19 00:52:22;;;;;;;37.30;24.63;;;;;;;;;;2081294;28;22109;-60
2021/01/19 00:53:23;;;;;;;40.40;25.47;;;;;;;;;;2083320;28;20598;-59
2021/01/19 00:54:23;;;;;;;40.40;25.67;;;;;;;;;;2084450;28;20250;-58
2021/01/19 00:55:24;;;;;;;38.33;24.60;;;;;;;;;;2085615;28;20172;-59
2021/01/19 00:56:33;;;;;;;35.43;24.50;;;;;;;;;;2084464;28;20671;-59
2021/01/19 00:57:34;;;;;;;35.53;23.33;;;;;;;;;;2092811;28;20612;-59
2021/01/19 00:58:34;;;;;;;34.37;22.80;;;;;;;;;;2090865;28;20214;-59
2021/01/19 00:59:34;;;;;;;34.10;24.27;;;;;;;;;;2092517;28;20171;-55
2021/01/19 01:00:35;;;;;;;34.20;24.13;;;;;;;;;;2082902;28;20198;-58
2021/01/19 01:01:42;;;;;;;30.77;22.30;;;;;;;;;;2102147;28;20212;-59
2021/01/19 01:02:43;;;;;;;31.23;20.67;;;;;;;;;;2104064;28;20770;-56
2021/01/19 01:03:43;;;;;;;29.13;18.60;;;;;;;;;;2092281;28;20223;-59
2021/01/19 01:04:43;;;;;;;33.53;19.43;;;;;;;;;;2076241;28;20235;-60
2021/01/19 01:05:44;;;;;;;29.47;21.80;;;;;;;;;;2073572;28;20234;-55
2021/01/19 01:06:44;;;;;;;27.70;19.60;;;;;;;;;;2094443;28;20603;-56
2021/01/19 01:07:44;;;;;;;31.30;20.37;;;;;;;;;;2089663;28;20166;-56
2021/01/19 01:08:44;;;;;;;26.23;18.87;;;;;;;;;;2093707;28;20649;-57
2021/01/19 01:09:45;;;;;;;30.50;21.97;;;;;;;;;;2103111;28;20265;-58
2021/01/19 01:10:45;;;;;;;30.53;20.73;;;;;;;;;;2101765;28;20224;-60
2021/01/19 01:11:45;;;;;;;26.20;19.77;;;;;;;;;;2103610;28;20183;-57
2021/01/19 01:12:45;;;;;;;26.90;19.37;;;;;;;;;;2092855;28;20204;-60
2021/01/19 01:13:46;;;;;;;27.93;20.20;;;;;;;;;;2091970;28;20179;-58
2021/01/19 01:14:46;;;;;;;29.53;20.60;;;;;;;;;;2094425;28;20178;-64
2021/01/19 01:15:47;;;;;;;31.40;21.90;;;;;;;;;;2102597;28;20667;-58
2021/01/19 01:16:47;;;;;;;27.03;19.43;;;;;;;;;;2099103;28;20579;-57
2021/01/19 01:17:47;;;;;;;24.30;19.67;;;;;;;;;;2092224;28;20729;-58
2021/01/19 01:18:49;;;;;;;25.70;18.80;;;;;;;;;;2094748;28;20671;-59
2021/01/19 01:19:50;;;;;;;24.57;15.77;;;;;;;;;;2095430;28;20168;-59
2021/01/19 01:20:50;;;;;;;25.30;18.50;;;;;;;;;;2107520;28;20189;-58
2021/01/19 01:21:50;;;;;;;27.50;20.83;;;;;;;;;;2106417;28;20178;-59
2021/01/19 01:22:51;;;;;;;24.97;18.13;;;;;;;;;;2105492;28;20226;-59
2021/01/19 01:23:51;;;;;;;25.30;18.67;;;;;;;;;;2103621;28;20186;-60
2021/01/19 01:24:51;;;;;;;22.33;18.03;;;;;;;;;;2106903;28;20877;-59
2021/01/19 01:25:52;;;;;;;26.73;19.27;;;;;;;;;;2102329;28;20178;-59
2021/01/19 01:26:53;;;;;;;22.37;18.20;;;;;;;;;;2105980;28;20190;-60
2021/01/19 01:27:53;;;;;;;23.33;18.67;;;;;;;;;;2098498;28;20167;-59
2021/01/19 01:28:53;;;;;;;27.17;18.87;;;;;;;;;;2095710;28;20185;-60
2021/01/19 01:29:54;;;;;;;23.40;18.50;;;;;;;;;;2105398;28;20635;-59
2021/01/19 01:30:54;;;;;;;26.13;18.00;;;;;;;;;;2102735;28;20176;-60
2021/01/19 01:31:54;;;;;;;25.60;17.63;;;;;;;;;;2104800;28;20192;-59
2021/01/19 01:32:54;;;;;;;23.30;18.80;;;;;;;;;;2097411;28;20258;-60
2021/01/19 01:33:55;;;;;;;24.63;18.00;;;;;;;;;;2086910;28;20192;-59
2021/01/19 01:34:55;;;;;;;23.53;18.20;;;;;;;;;;2094708;28;20175;-60
2021/01/19 01:35:55;;;;;;;24.63;19.43;;;;;;;;;;2103554;28;20175;-60
2021/01/19 01:36:55;;;;;;;22.73;18.03;;;;;;;;;;2093061;28;20175;-59
2021/01/19 01:37:56;;;;;;;23.83;18.13;;;;;;;;;;2085618;28;20168;-59
2021/01/19 01:38:56;;;;;;;24.40;18.47;;;;;;;;;;2095957;28;20679;-57
2021/01/19 01:39:56;;;;;;;22.70;17.43;;;;;;;;;;2106645;28;20186;-59
2021/01/19 01:40:56;;;;;;;21.53;15.60;;;;;;;;;;2105980;28;20175;-59
2021/01/19 01:41:57;;;;;;;21.83;16.20;;;;;;;;;;2104937;28;20171;-57
2021/01/19 01:42:58;;;;;;;21.93;17.40;;;;;;;;;;2106011;28;20178;-59
2021/01/19 01:44:01;;;;;;;18.20;16.00;;;;;;;;;;2105015;28;20175;-60
2021/01/19 01:45:01;;;;;;;22.07;16.97;;;;;;;;;;2102801;28;20188;-60
2021/01/19 01:46:01;;;;;;;22.63;16.53;;;;;;;;;;2093830;28;20244;-59
2021/01/19 01:47:02;;;;;;;21.83;16.93;;;;;;;;;;2083259;28;20180;-59
2021/01/19 01:48:02;;;;;;;21.97;16.80;;;;;;;;;;2090591;28;20606;-60
2021/01/19 01:49:03;;;;;;;20.10;16.10;;;;;;;;;;2093865;28;20281;-60
2021/01/19 01:50:04;;;;;;;20.97;17.50;;;;;;;;;;2087152;28;20178;-60
2021/01/19 01:51:05;;;;;;;20.00;16.23;;;;;;;;;;2095742;28;20187;-57
2021/01/19 01:52:05;;;;;;;18.50;15.03;;;;;;;;;;2094945;28;20211;-57
2021/01/19 01:53:06;;;;;;;18.27;14.23;;;;;;;;;;2094562;28;20764;-57
2021/01/19 01:54:06;;;;;;;18.50;14.53;;;;;;;;;;2103674;28;20273;-57
2021/01/19 01:55:08;;;;;;;20.63;16.37;;;;;;;;;;2094340;28;20174;-57
2021/01/19 01:56:09;;;;;;;17.37;13.97;;;;;;;;;;2091074;28;20206;-58
2021/01/19 01:57:09;;;;;;;15.33;13.00;;;;;;;;;;2097729;28;20185;-56
2021/01/19 01:58:09;;;;;;;20.13;15.93;;;;;;;;;;2090955;28;20299;-56
2021/01/19 01:59:10;;;;;;;16.27;14.57;;;;;;;;;;2092497;28;20175;-59
2021/01/19 02:00:11;;;;;;;19.33;15.40;;;;;;;;;;2099053;28;20178;-56
2021/01/19 02:01:11;;;;;;;16.93;14.30;;;;;;;;;;2092030;28;20233;-60
2021/01/19 02:02:12;;;;;;;18.17;15.13;;;;;;;;;;2093262;28;20220;-58
2021/01/19 02:03:12;;;;;;;16.87;14.70;;;;;;;;;;2101259;28;20546;-58
2021/01/19 02:04:12;;;;;;;15.10;13.03;;;;;;;;;;2099138;28;20167;-58
2021/01/19 02:05:12;;;;;;;16.67;13.17;;;;;;;;;;2092222;28;20184;-58
2021/01/19 02:06:16;;;;;;;23.90;15.93;;;;;;;;;;2083263;28;20226;-57
2021/01/19 02:07:35;;;;;;;18.97;15.30;;;;;;;;;;2093660;28;20179;-57
2021/01/19 02:08:39;;;;;;;16.07;13.93;;;;;;;;;;2097918;28;20266;-58
2021/01/19 02:09:41;;;;;;;16.20;14.00;;;;;;;;;;2101557;28;20253;-57
2021/01/19 02:10:48;;;;;;;19.03;14.03;;;;;;;;;;2095233;28;20171;-58
2021/01/19 02:11:53;;;;;;;18.37;14.43;;;;;;;;;;2100937;28;20840;-56
2021/01/19 02:12:56;;;;;;;18.17;15.33;;;;;;;;;;2089233;28;20191;-58
2021/01/19 02:13:56;;;;;;;22.20;14.37;;;;;;;;;;2090984;28;20245;-60
2021/01/19 02:15:01;;;;;;;16.07;14.40;;;;;;;;;;2098247;28;20304;-59
2021/01/19 02:16:18;;;;;;;18.23;15.30;;;;;;;;;;2101026;28;20207;-60
2021/01/19 02:17:38;;;;;;;20.63;14.60;;;;;;;;;;2099421;28;20158;-59
2021/01/19 02:18:51;;;;;;;18.63;14.67;;;;;;;;;;2100766;28;20630;-61
2021/01/19 02:20:10;;;;;;;17.80;14.63;;;;;;;;;;2100292;28;20167;-59
2021/01/19 02:21:38;;;;;;;17.57;14.27;;;;;;;;;;2100962;28;20229;-56
2021/01/19 02:22:57;;;;;;;14.90;12.30;;;;;;;;;;2101104;28;20162;-56
2021/01/19 02:24:08;;;;;;;18.30;15.07;;;;;;;;;;2090594;28;20313;-58
2021/01/19 02:25:27;;;;;;;21.17;15.27;;;;;;;;;;2092156;28;20671;-59
2021/01/19 02:26:30;;;;;;;19.73;14.50;;;;;;;;;;2102766;28;20210;-58
2021/01/19 02:27:49;;;;;;;20.97;13.30;;;;;;;;;;2098233;28;20170;-61
2021/01/19 02:29:07;;;;;;;20.37;14.40;;;;;;;;;;2102119;28;20166;-59
2021/01/19 02:30:28;;;;;;;18.30;15.30;;;;;;;;;;2100000;28;20178;-59
2021/01/19 02:31:47;;;;;;;12.07;10.70;;;;;;;;;;2061402;28;20193;-60
2021/01/19 02:33:00;;;;;;;19.27;14.20;;;;;;;;;;2104283;28;20205;-60
2021/01/19 02:34:18;;;;;;;17.50;15.03;;;;;;;;;;2090222;28;20180;-57
2021/01/19 02:35:24;;;;;;;16.37;13.47;;;;;;;;;;2081161;28;20191;-59
2021/01/19 02:36:29;;;;;;;19.23;14.50;;;;;;;;;;2086642;28;20246;-57
2021/01/19 02:37:33;;;;;;;19.97;14.10;;;;;;;;;;2081345;28;20172;-55
2021/01/19 02:38:54;;;;;;;20.73;15.77;;;;;;;;;;2083568;28;20175;-59
2021/01/19 02:39:55;;;;;;;16.30;14.60;;;;;;;;;;2095886;28;20257;-58
2021/01/19 02:40:55;;;;;;;21.53;14.57;;;;;;;;;;2100481;28;20205;-55
2021/01/19 02:41:56;;;;;;;17.93;13.93;;;;;;;;;;2100228;28;20224;-58
2021/01/19 02:43:06;;;;;;;22.00;14.80;;;;;;;;;;2091799;28;20172;-59
2021/01/19 02:44:19;;;;;;;21.63;13.07;;;;;;;;;;2093171;28;20174;-58
2021/01/19 02:45:20;;;;;;;16.47;13.47;;;;;;;;;;2090213;28;20183;-58
2021/01/19 02:46:20;;;;;;;18.17;13.43;;;;;;;;;;2092070;28;20196;-58
2021/01/19 02:47:20;;;;;;;15.97;13.80;;;;;;;;;;2096097;28;20175;-57
2021/01/19 02:48:21;;;;;;;17.10;14.03;;;;;;;;;;2102069;28;20262;-58
2021/01/19 02:49:22;;;;;;;15.80;13.83;;;;;;;;;;2100161;28;20179;-60
2021/01/19 02:50:22;;;;;;;16.93;12.90;;;;;;;;;;2101162;28;20190;-59
2021/01/19 02:51:22;;;;;;;17.03;13.27;;;;;;;;;;2097008;28;20241;-58
2021/01/19 02:52:24;;;;;;;16.53;13.00;;;;;;;;;;2102735;28;20545;-56
2021/01/19 02:53:25;;;;;;;16.53;12.83;;;;;;;;;;2100241;28;20174;-57
2021/01/19 02:54:26;;;;;;;20.33;12.03;;;;;;;;;;2101315;28;20203;-57
2021/01/19 02:55:27;;;;;;;15.33;11.87;;;;;;;;;;2099433;28;20167;-57
2021/01/19 02:56:38;;;;;;;18.40;12.57;;;;;;;;;;2098125;28;20191;-60
2021/01/19 02:57:47;;;;;;;14.27;11.80;;;;;;;;;;2098029;28;20167;-57
2021/01/19 02:58:51;;;;;;;17.23;12.03;;;;;;;;;;2096594;28;20259;-57
2021/01/19 03:00:11;;;;;;;16.67;12.87;;;;;;;;;;2097688;28;20187;-56
2021/01/19 03:01:23;;;;;;;20.10;13.70;;;;;;;;;;2100163;28;20170;-55
2021/01/19 03:02:26;;;;;;;19.57;13.67;;;;;;;;;;2092871;28;20662;-58
2021/01/19 03:03:29;;;;;;;17.33;12.43;;;;;;;;;;2093207;28;20209;-57
2021/01/19 03:04:30;;;;;;;17.73;14.70;;;;;;;;;;2090524;28;20206;-55
2021/01/19 03:05:31;;;;;;;19.93;15.60;;;;;;;;;;2093633;28;20202;-58
2021/01/19 03:06:31;;;;;;;21.23;16.13;;;;;;;;;;2090248;28;20249;-57
2021/01/19 03:07:35;;;;;;;21.03;17.20;;;;;;;;;;2094534;28;20740;-57
2021/01/19 03:08:37;;;;;;;22.57;16.73;;;;;;;;;;2093285;28;20263;-57
2021/01/19 03:09:39;;;;;;;26.77;17.17;;;;;;;;;;2104163;28;20208;-59
2021/01/19 03:10:40;;;;;;;22.57;17.00;;;;;;;;;;2103042;28;20174;-59
2021/01/19 03:11:41;;;;;;;23.83;17.07;;;;;;;;;;2095048;28;20246;-58
2021/01/19 03:12:42;;;;;;;21.23;17.03;;;;;;;;;;2096174;28;20207;-58
2021/01/19 03:13:44;;;;;;;23.37;18.00;;;;;;;;;;2104093;28;20232;-57
2021/01/19 03:14:44;;;;;;;18.40;12.53;;;;;;;;;;2100935;28;20192;-57
2021/01/19 03:15:44;;;;;;;20.90;16.13;;;;;;;;;;2098578;28;20631;-59
2021/01/19 03:16:45;;;;;;;19.87;15.93;;;;;;;;;;2090813;28;20222;-58
2021/01/19 03:17:46;;;;;;;25.43;15.73;;;;;;;;;;2089396;28;20688;-58
2021/01/19 03:18:47;;;;;;;20.47;15.77;;;;;;;;;;2100650;28;20185;-56
2021/01/19 03:19:48;;;;;;;18.93;14.10;;;;;;;;;;2098461;28;20178;-59
2021/01/19 03:20:48;;;;;;;19.63;13.10;;;;;;;;;;2100610;28;20182;-56
2021/01/19 03:21:48;;;;;;;17.83;13.23;;;;;;;;;;2100104;28;20187;-57
2021/01/19 03:22:49;;;;;;;15.97;14.03;;;;;;;;;;2097656;28;20183;-58
2021/01/19 03:23:49;;;;;;;17.53;13.57;;;;;;;;;;2082981;28;20764;-59
2021/01/19 03:24:49;;;;;;;16.27;12.50;;;;;;;;;;2082664;28;20526;-56
2021/01/19 03:25:49;;;;;;;20.97;13.23;;;;;;;;;;2101700;28;20178;-59
2021/01/19 03:26:50;;;;;;;18.97;13.57;;;;;;;;;;2091770;28;20656;-59
2021/01/19 03:27:50;;;;;;;20.77;12.90;;;;;;;;;;2092782;28;20538;-59
2021/01/19 03:28:50;;;;;;;16.93;13.13;;;;;;;;;;2091489;28;20624;-58
2021/01/19 03:29:50;;;;;;;16.23;11.13;;;;;;;;;;2100312;28;20308;-57
2021/01/19 03:30:51;;;;;;;19.67;12.13;;;;;;;;;;2103044;28;20273;-56
2021/01/19 03:31:51;;;;;;;16.27;11.90;;;;;;;;;;2101249;28;20248;-58
2021/01/19 03:32:51;;;;;;;13.90;11.17;;;;;;;;;;2102887;28;20233;-56
2021/01/19 03:33:52;;;;;;;18.20;10.67;;;;;;;;;;2100426;28;20179;-57
2021/01/19 03:34:52;;;;;;;15.33;10.73;;;;;;;;;;2092298;28;20172;-60
2021/01/19 03:35:52;;;;;;;17.67;10.10;;;;;;;;;;2094305;28;20258;-56
2021/01/19 03:36:53;;;;;;;12.20;10.03;;;;;;;;;;2091381;28;20650;-57
2021/01/19 03:37:53;;;;;;;15.77;10.33;;;;;;;;;;2101560;28;20162;-56
2021/01/19 03:38:53;;;;;;;14.47;9.73;;;;;;;;;;2103843;28;20181;-56
2021/01/19 03:39:54;;;;;;;15.20;9.30;;;;;;;;;;2100524;28;20197;-55
2021/01/19 03:40:54;;;;;;;11.70;9.60;;;;;;;;;;2103853;28;20178;-57
2021/01/19 03:41:54;;;;;;;13.20;9.10;;;;;;;;;;2100824;28;20172;-55
2021/01/19 03:42:55;;;;;;;11.97;8.27;;;;;;;;;;2098369;28;20628;-57
2021/01/19 03:43:55;;;;;;;13.27;8.30;;;;;;;;;;2093175;28;20239;-62
2021/01/19 03:44:55;;;;;;;13.73;8.23;;;;;;;;;;2089693;28;20176;-57
2021/01/19 03:45:55;;;;;;;13.57;8.03;;;;;;;;;;2092421;28;20179;-59
2021/01/19 03:46:56;;;;;;;16.77;8.13;;;;;;;;;;2090276;28;20198;-58
2021/01/19 03:47:56;;;;;;;13.57;7.50;;;;;;;;;;2101269;28;20182;-56
2021/01/19 03:48:57;;;;;;;9.10;7.40;;;;;;;;;;2093495;28;20183;-55
2021/01/19 03:49:57;;;;;;;12.27;8.33;;;;;;;;;;2092753;28;20197;-58
2021/01/19 03:50:58;;;;;;;11.87;7.30;;;;;;;;;;2102157;28;20175;-59
2021/01/19 03:51:58;;;;;;;12.23;7.20;;;;;;;;;;2093093;28;20556;-59
2021/01/19 03:52:58;;;;;;;8.13;6.70;;;;;;;;;;2092909;28;20223;-58
2021/01/19 03:53:59;;;;;;;12.93;6.60;;;;;;;;;;2101261;28;21621;-56
2021/01/19 03:54:59;;;;;;;10.77;6.80;;;;;;;;;;2101950;28;20166;-58
2021/01/19 03:55:59;;;;;;;8.37;6.83;;;;;;;;;;2102010;28;20213;-56
2021/01/19 03:57:00;;;;;;;7.03;6.20;;;;;;;;;;2092969;28;20168;-53
2021/01/19 03:58:00;;;;;;;9.90;5.77;;;;;;;;;;2092806;28;20699;-56
2021/01/19 03:59:00;;;;;;;10.57;6.60;;;;;;;;;;2091798;28;20678;-58
2021/01/19 04:00:01;;;;;;;9.43;6.13;;;;;;;;;;2093125;28;20613;-58
2021/01/19 04:01:02;;;;;;;7.43;5.83;;;;;;;;;;2101862;28;20692;-57
2021/01/19 04:02:02;;;;;;;11.53;6.60;;;;;;;;;;2102372;28;20639;-57
2021/01/19 04:03:02;;;;;;;10.90;6.33;;;;;;;;;;2101788;28;20174;-57
2021/01/19 04:04:02;;;;;;;6.60;5.10;;;;;;;;;;2100322;28;20628;-57
2021/01/19 04:05:03;;;;;;;7.97;5.57;;;;;;;;;;2102673;28;20552;-56
2021/01/19 04:06:07;;;;;;;13.23;5.97;;;;;;;;;;2101442;28;20190;-56
2021/01/19 04:07:07;;;;;;;6.80;5.30;;;;;;;;;;2100006;28;20550;-59
2021/01/19 04:08:07;;;;;;;9.00;4.97;;;;;;;;;;2102886;28;20183;-59
2021/01/19 04:09:08;;;;;;;14.00;6.03;;;;;;;;;;2097797;28;20254;-57
2021/01/19 04:10:09;;;;;;;9.87;5.80;;;;;;;;;;2103067;28;20209;-59
2021/01/19 04:11:09;;;;;;;5.43;4.33;;;;;;;;;;2097218;28;20404;-59
2021/01/19 04:12:09;;;;;;;5.33;4.83;;;;;;;;;;2103186;28;20768;-55
2021/01/19 04:13:09;;;;;;;7.87;5.20;;;;;;;;;;2091789;28;20249;-57
2021/01/19 04:14:10;;;;;;;9.17;4.60;;;;;;;;;;2093347;28;20181;-58
2021/01/19 04:15:10;;;;;;;9.60;5.67;;;;;;;;;;2101387;28;20177;-59
2021/01/19 04:16:11;;;;;;;10.40;4.60;;;;;;;;;;2100214;28;20217;-56
2021/01/19 04:17:11;;;;;;;12.20;4.90;;;;;;;;;;2100311;28;20264;-60
2021/01/19 04:18:11;;;;;;;6.93;4.53;;;;;;;;;;2103015;28;20184;-58
2021/01/19 04:19:11;;;;;;;6.40;5.40;;;;;;;;;;2092664;28;20175;-58
2021/01/19 04:20:12;;;;;;;6.33;4.03;;;;;;;;;;2091871;28;20180;-58
2021/01/19 04:21:12;;;;;;;9.23;4.57;;;;;;;;;;2102862;28;20185;-57
2021/01/19 04:22:12;;;;;;;9.80;4.07;;;;;;;;;;2100997;28;20183;-57
2021/01/19 04:23:14;;;;;;;6.87;4.27;;;;;;;;;;2102785;28;20253;-59
2021/01/19 04:24:14;;;;;;;9.60;5.03;;;;;;;;;;2098229;28;20206;-56
2021/01/19 04:25:14;;;;;;;6.87;4.50;;;;;;;;;;2102416;28;20623;-60
2021/01/19 04:26:14;;;;;;;5.83;4.40;;;;;;;;;;2100108;28;20683;-59
2021/01/19 04:27:15;;;;;;;7.13;3.93;;;;;;;;;;2100750;28;20286;-58
2021/01/19 04:28:15;;;;;;;5.27;3.93;;;;;;;;;;2102514;28;20611;-56
2021/01/19 04:29:16;;;;;;;7.57;3.63;;;;;;;;;;2099392;28;20187;-59
2021/01/19 04:30:16;;;;;;;11.40;4.80;;;;;;;;;;2093507;28;20229;-59
2021/01/19 04:31:17;;;;;;;6.80;4.10;;;;;;;;;;2092835;28;20243;-59
2021/01/19 04:32:17;;;;;;;4.73;4.03;;;;;;;;;;2102237;28;20158;-58
2021/01/19 04:33:17;;;;;;;6.43;3.90;;;;;;;;;;2101599;28;20715;-59
2021/01/19 04:34:17;;;;;;;7.20;4.07;;;;;;;;;;2100496;28;20254;-60
2021/01/19 04:35:18;;;;;;;13.30;4.87;;;;;;;;;;2101948;28;20226;-59
2021/01/19 04:36:18;;;;;;;6.70;4.50;;;;;;;;;;2091646;28;20234;-57
2021/01/19 04:37:18;;;;;;;9.47;4.40;;;;;;;;;;2082071;28;20327;-59
2021/01/19 04:38:18;;;;;;;8.77;4.37;;;;;;;;;;2093538;28;20179;-59
2021/01/19 04:39:19;;;;;;;8.80;4.73;;;;;;;;;;2092866;28;20159;-56
2021/01/19 04:40:19;;;;;;;6.90;4.40;;;;;;;;;;2093252;28;20179;-59
2021/01/19 04:41:20;;;;;;;7.83;4.07;;;;;;;;;;2092578;28;20173;-59
2021/01/19 04:42:21;;;;;;;9.10;3.97;;;;;;;;;;2094797;28;20237;-59
2021/01/19 04:43:22;;;;;;;11.33;4.03;;;;;;;;;;2102873;28;20174;-60
2021/01/19 04:44:24;;;;;;;7.13;3.87;;;;;;;;;;2102992;28;20177;-60
2021/01/19 04:45:24;;;;;;;6.93;3.70;;;;;;;;;;2102043;28;20175;-59
2021/01/19 04:46:26;;;;;;;8.17;4.10;;;;;;;;;;2101461;28;20199;-56
2021/01/19 04:47:26;;;;;;;7.70;4.67;;;;;;;;;;2093338;28;20183;-56
2021/01/19 04:48:26;;;;;;;5.53;3.93;;;;;;;;;;2092044;28;20171;-61
2021/01/19 04:49:27;;;;;;;10.10;4.20;;;;;;;;;;2102068;28;20179;-56
2021/01/19 04:50:29;;;;;;;7.57;3.97;;;;;;;;;;2103650;28;20562;-55
2021/01/19 04:51:32;;;;;;;6.47;4.13;;;;;;;;;;2104769;28;21606;-59
2021/01/19 04:52:33;;;;;;;5.47;4.47;;;;;;;;;;2099921;28;20183;-55
2021/01/19 04:53:36;;;;;;;7.27;4.17;;;;;;;;;;2102572;28;20167;-57
2021/01/19 04:54:41;;;;;;;5.60;4.17;;;;;;;;;;2094913;28;20175;-60
2021/01/19 04:55:45;;;;;;;5.37;3.23;;;;;;;;;;2093261;28;20623;-57
2021/01/19 04:56:50;;;;;;;6.10;4.13;;;;;;;;;;2102110;28;20182;-56
2021/01/19 04:57:57;;;;;;;7.00;4.17;;;;;;;;;;2099177;28;20304;-56
2021/01/19 04:58:58;;;;;;;6.43;4.37;;;;;;;;;;2102843;28;20170;-59
2021/01/19 04:59:59;;;;;;;12.50;4.60;;;;;;;;;;2092664;28;20199;-57
2021/01/19 05:01:07;;;;;;;6.17;4.60;;;;;;;;;;2094719;28;20619;-58
2021/01/19 05:02:26;;;;;;;6.77;4.50;;;;;;;;;;2091827;28;20266;-58
2021/01/19 05:03:37;;;;;;;5.73;3.80;;;;;;;;;;2097613;28;20221;-57
2021/01/19 05:04:42;;;;;;;8.40;4.57;;;;;;;;;;2092607;28;20178;-57
2021/01/19 05:05:43;;;;;;;10.43;4.70;;;;;;;;;;2095625;28;20176;-57
2021/01/19 05:06:43;;;;;;;5.17;4.30;;;;;;;;;;2102475;28;20178;-58
2021/01/19 05:07:56;;;;;;;7.70;4.83;;;;;;;;;;2102418;28;20186;-55
2021/01/19 05:08:57;;;;;;;10.03;4.57;;;;;;;;;;2100039;28;20533;-55
2021/01/19 05:12:01;;;;;;;7.40;4.00;;;;;;;;;;2099343;28;20151;-57
2021/01/19 05:13:08;;;;;;;6.03;4.50;;;;;;;;;;2103434;28;20718;-57
2021/01/19 05:14:10;;;;;;;7.97;4.73;;;;;;;;;;2093511;28;20170;-61
2021/01/19 05:15:11;;;;;;;9.30;5.47;;;;;;;;;;2088603;28;20695;-58
2021/01/19 05:16:13;;;;;;;10.83;4.13;;;;;;;;;;2104777;28;20677;-59
2021/01/19 05:17:14;;;;;;;9.80;5.10;;;;;;;;;;2101827;28;20177;-59
2021/01/19 05:18:15;;;;;;;5.70;4.77;;;;;;;;;;2103208;28;20615;-59
2021/01/19 05:19:20;;;;;;;10.20;5.73;;;;;;;;;;2104867;28;20170;-57
2021/01/19 05:20:21;;;;;;;6.40;4.60;;;;;;;;;;2104139;28;20179;-57
2021/01/19 05:21:21;;;;;;;9.70;4.70;;;;;;;;;;2102879;28;20170;-58
2021/01/19 05:22:22;;;;;;;8.43;5.00;;;;;;;;;;2103974;28;20208;-55
2021/01/19 05:23:22;;;;;;;5.80;4.93;;;;;;;;;;2104687;28;20195;-57
2021/01/19 05:24:23;;;;;;;7.73;5.97;;;;;;;;;;2101734;28;20167;-59
2021/01/19 05:25:23;;;;;;;8.40;5.63;;;;;;;;;;2098465;28;20185;-52
2021/01/19 05:26:24;;;;;;;6.43;5.53;;;;;;;;;;2101350;28;20725;-54
2021/01/19 05:27:24;;;;;;;7.60;6.10;;;;;;;;;;2102695;28;20534;-55
2021/01/19 05:28:34;;;;;;;11.20;5.20;;;;;;;;;;2085789;28;20183;-59
2021/01/19 05:29:35;;;;;;;9.17;5.70;;;;;;;;;;2087767;28;20177;-56
2021/01/19 05:30:35;;;;;;;6.90;5.57;;;;;;;;;;2103010;28;20175;-56
2021/01/19 05:31:36;;;;;;;15.43;6.10;;;;;;;;;;2102857;28;20234;-57
2021/01/19 05:32:36;;;;;;;6.87;5.87;;;;;;;;;;2105539;28;20189;-55
2021/01/19 05:33:36;;;;;;;10.37;5.50;;;;;;;;;;2106021;28;20186;-56
2021/01/19 05:34:37;;;;;;;8.37;5.90;;;;;;;;;;2108840;28;20186;-58
2021/01/19 05:35:37;;;;;;;11.10;5.90;;;;;;;;;;2105140;28;20185;-58
2021/01/19 05:36:50;;;;;;;9.77;5.40;;;;;;;;;;2107460;28;20186;-56
2021/01/19 05:37:57;;;;;;;6.10;5.07;;;;;;;;;;2104373;28;20418;-56
2021/01/19 05:38:58;;;;;;;8.30;6.37;;;;;;;;;;2101876;28;20167;-60
2021/01/19 05:40:04;;;;;;;9.97;6.07;;;;;;;;;;2100340;28;20203;-59
2021/01/19 05:41:04;;;;;;;7.73;6.03;;;;;;;;;;2106916;28;20231;-57
2021/01/19 05:42:05;;;;;;;5.83;5.23;;;;;;;;;;2104995;28;20648;-58
2021/01/19 05:43:11;;;;;;;9.07;6.20;;;;;;;;;;2102664;28;20693;-56
2021/01/19 05:44:12;;;;;;;6.50;5.60;;;;;;;;;;2101997;28;20183;-57
2021/01/19 05:45:12;;;;;;;8.40;5.30;;;;;;;;;;2104116;28;20217;-56
2021/01/19 05:46:22;;;;;;;7.70;6.33;;;;;;;;;;2101486;28;20225;-58
2021/01/19 05:47:22;;;;;;;9.43;5.83;;;;;;;;;;2103110;28;20540;-57
2021/01/19 05:48:23;;;;;;;9.33;6.13;;;;;;;;;;2102539;28;20180;-56
2021/01/19 05:49:24;;;;;;;8.30;5.90;;;;;;;;;;2094523;28;20603;-57
2021/01/19 05:50:25;;;;;;;10.00;6.03;;;;;;;;;;2093388;28;20173;-56
2021/01/19 05:51:31;;;;;;;9.60;5.70;;;;;;;;;;2092684;28;20644;-56
2021/01/19 05:52:31;;;;;;;8.93;5.10;;;;;;;;;;2090241;28;20167;-59
2021/01/19 05:53:33;;;;;;;15.73;7.03;;;;;;;;;;2101237;28;20182;-56
2021/01/19 05:54:41;;;;;;;7.07;5.47;;;;;;;;;;2103380;28;20170;-55
2021/01/19 05:55:42;;;;;;;9.20;5.70;;;;;;;;;;2101691;28;20235;-58
2021/01/19 05:56:43;;;;;;;9.13;5.47;;;;;;;;;;2103043;28;20257;-57
2021/01/19 05:57:44;;;;;;;7.00;6.10;;;;;;;;;;2093050;28;20187;-56
2021/01/19 05:58:45;;;;;;;9.27;6.60;;;;;;;;;;2094484;28;20274;-59
2021/01/19 05:59:46;;;;;;;9.87;5.80;;;;;;;;;;2103579;28;20592;-56
2021/01/19 06:00:52;;;;;;;6.80;6.20;;;;;;;;;;2101033;28;20228;-56
2021/01/19 06:01:56;;;;;;;11.43;6.43;;;;;;;;;;2098369;28;20175;-54
2021/01/19 06:03:12;;;;;;;10.90;7.10;;;;;;;;;;2102618;28;20171;-56
2021/01/19 06:04:14;;;;;;;6.10;5.60;;;;;;;;;;2103854;28;20185;-57
2021/01/19 06:05:15;;;;;;;7.43;5.20;;;;;;;;;;2100836;28;20186;-59
2021/01/19 06:06:16;;;;;;;8.40;6.13;;;;;;;;;;2089882;28;20191;-54
2021/01/19 06:07:18;;;;;;;9.20;5.70;;;;;;;;;;2092150;28;20543;-56